Time;durP1;ratioP1;P1;durP2;ratioP2;P2;SDS_P1;SDS_P2;PMS_P1;PMS_P2;Temp;Humidity;BMP_temperature;BMP_pressure;BME280_temperature;BME280_humidity;BME280_pressure;Samples;Min_cycle;Max_cycle;Signal;HPM_P1;HPM_P2
2022/11/30 00:01:15;;;;;;;2.07;0.50;;;7.00;99.90;;;;;;5042315;28;20048;-88
2022/11/30 00:03:40;;;;;;;;;;;6.20;99.90;;;;;;5059034;28;20301;-88
2022/11/30 00:06:09;;;;;;;0.68;0.68;;;6.20;99.90;;;;;;5058168;28;19920;-89
2022/11/30 00:08:40;;;;;;;1.85;1.02;;;6.30;99.90;;;;;;5041910;28;20084;-88
2022/11/30 00:11:14;;;;;;;0.73;0.68;;;6.70;99.90;;;;;;5058216;28;20051;-88
2022/11/30 00:13:40;;;;;;;1.92;1.00;;;6.10;99.90;;;;;;5041512;28;20541;-88
2022/11/30 00:16:07;;;;;;;2.53;1.25;;;7.20;99.90;;;;;;5041814;28;20053;-88
2022/11/30 00:18:33;;;;;;;1.42;1.20;;;6.30;99.90;;;;;;5041442;28;20048;-88
2022/11/30 00:21:07;;;;;;;1.98;0.77;;;6.20;99.90;;;;;;5041487;28;20075;-88
2022/11/30 00:23:34;;;;;;;5.78;1.77;;;6.10;99.90;;;;;;5058399;28;20088;-88
2022/11/30 00:26:05;;;;;;;2.47;1.27;;;7.50;99.90;;;;;;5041437;28;20095;-89
2022/11/30 00:28:32;;;;;;;1.67;1.13;;;7.40;99.90;;;;;;5057705;28;20087;-88
2022/11/30 00:30:59;;;;;;;2.58;1.60;;;6.00;99.90;;;;;;5057669;28;20040;-88
2022/11/30 00:33:30;;;;;;;2.28;0.90;;;6.00;99.90;;;;;;5041143;28;20056;-88
2022/11/30 00:36:09;;;;;;;2.03;1.52;;;6.20;99.90;;;;;;5041680;28;20059;-88
2022/11/30 00:38:35;;;;;;;1.70;1.00;;;5.90;99.90;;;;;;5057450;28;20513;-88
2022/11/30 00:41:01;;;;;;;3.87;1.87;;;5.90;99.90;;;;;;5041412;28;20083;-88
2022/11/30 00:43:30;;;;;;;4.40;1.87;;;5.70;99.90;;;;;;5041046;28;20095;-88
2022/11/30 00:45:56;;;;;;;1.35;1.23;;;6.70;99.90;;;;;;5041238;28;20076;-88
2022/11/30 00:48:24;;;;;;;1.40;1.30;;;5.80;99.90;;;;;;5057551;28;20044;-88
2022/11/30 00:50:50;;;;;;;2.22;0.90;;;5.80;99.90;;;;;;5041046;28;20137;-88
2022/11/30 00:53:17;;;;;;;3.70;1.50;;;5.80;99.90;;;;;;5039688;28;20048;-88
2022/11/30 00:55:46;;;;;;;;;;;5.80;99.90;;;;;;5021498;28;20060;-88
2022/11/30 00:58:12;;;;;;;2.55;1.20;;;5.80;99.90;;;;;;5021075;28;20015;-88
2022/11/30 01:00:38;;;;;;;1.75;0.95;;;6.30;99.90;;;;;;5021147;28;20049;-88
2022/11/30 01:03:11;;;;;;;2.77;1.73;;;5.70;99.90;;;;;;5020589;28;20041;-88
2022/11/30 01:05:37;;;;;;;2.08;1.40;;;5.50;99.90;;;;;;5021285;28;20081;-88
2022/11/30 01:08:06;;;;;;;2.83;1.25;;;5.50;99.90;;;;;;5020405;28;20052;-88
2022/11/30 01:10:36;;;;;;;4.75;0.95;;;4.80;99.90;;;;;;5020626;28;20051;-88
2022/11/30 01:13:02;;;;;;;1.70;0.85;;;5.50;99.90;;;;;;5020975;28;20135;-88
2022/11/30 01:15:29;;;;;;;4.10;0.98;;;5.50;99.90;;;;;;5020057;28;20044;-88
2022/11/30 01:17:57;;;;;;;4.90;1.30;;;5.40;99.90;;;;;;5020445;28;20051;-88
2022/11/30 01:20:25;;;;;;;2.25;1.23;;;5.40;99.90;;;;;;5021021;28;20103;-88
2022/11/30 01:22:54;;;;;;;3.92;1.17;;;6.80;99.90;;;;;;5020416;28;20496;-88
2022/11/30 01:25:20;;;;;;;0.82;0.80;;;5.50;99.90;;;;;;5019981;28;20076;-88
2022/11/30 01:27:52;;;;;;;1.30;0.73;;;5.40;99.90;;;;;;5036597;28;20534;-88
2022/11/30 01:30:18;;;;;;;3.42;1.08;;;6.80;99.90;;;;;;5036574;28;20128;-88
2022/11/30 01:33:00;;;;;;;1.87;1.37;;;5.50;99.90;;;;;;5004324;28;20474;-88
2022/11/30 01:35:25;;;;;;;4.20;1.25;;;5.60;99.90;;;;;;5020295;28;20249;-88
2022/11/30 01:37:51;;;;;;;1.63;1.13;;;5.60;99.90;;;;;;5036962;28;20432;-88
2022/11/30 01:40:17;;;;;;;0.93;0.80;;;5.60;99.90;;;;;;5036580;28;20053;-88
2022/11/30 01:42:46;;;;;;;3.07;1.80;;;5.60;99.90;;;;;;5020041;28;20475;-88
2022/11/30 01:45:16;;;;;;;1.75;0.77;;;5.60;99.90;;;;;;5036889;28;20088;-88
2022/11/30 01:47:50;;;;;;;2.25;1.20;;;5.80;99.90;;;;;;5036448;28;20135;-88
2022/11/30 01:50:28;;;;;;;4.65;1.40;;;5.70;99.90;;;;;;5020049;28;20060;-88
2022/11/30 01:52:56;;;;;;;;;;;5.80;99.90;;;;;;5053751;28;20053;-88
2022/11/30 01:55:32;;;;;;;1.80;0.73;;;5.80;99.90;;;;;;5037358;28;19928;-88
2022/11/30 01:58:22;;;;;;;0.70;0.70;;;5.70;99.90;;;;;;5039421;28;20044;-88
2022/11/30 02:00:50;;;;;;;1.00;0.73;;;5.80;99.90;;;;;;5056594;28;20044;-88
2022/11/30 02:03:34;;;;;;;2.08;0.82;;;4.90;99.90;;;;;;5039759;28;20052;-88
2022/11/30 02:06:00;;;;;;;2.15;0.82;;;5.70;99.90;;;;;;5039240;28;20049;-88
2022/11/30 02:08:29;;;;;;;0.90;0.90;;;5.80;99.90;;;;;;5038716;28;20105;-88
2022/11/30 02:11:01;;;;;;;4.18;1.08;;;5.80;99.90;;;;;;5031384;28;20087;-88
2022/11/30 02:13:33;;;;;;;1.63;0.85;;;5.80;99.90;;;;;;5056077;28;20052;-88
2022/11/30 02:16:22;;;;;;;3.05;1.00;;;7.10;99.90;;;;;;5055707;28;20045;-88
2022/11/30 02:19:08;;;;;;;2.13;0.70;;;7.00;99.90;;;;;;5055774;28;20045;-88
2022/11/30 02:22:01;;;;;;;2.17;0.88;;;5.80;99.90;;;;;;5055673;28;20045;-88
2022/11/30 02:25:09;;;;;;;1.38;0.70;;;6.00;99.90;;;;;;5055288;28;20060;-88
2022/11/30 02:27:50;;;;;;;2.58;1.25;;;5.90;99.90;;;;;;5055284;28;20521;-88
2022/11/30 02:30:20;;;;;;;1.40;1.30;;;5.90;99.90;;;;;;5055709;28;20048;-88
2022/11/30 02:32:56;;;;;;;3.13;0.98;;;5.10;99.90;;;;;;5038817;28;20051;-88
2022/11/30 02:35:31;;;;;;;2.10;1.23;;;5.90;99.90;;;;;;5055852;28;20510;-88
2022/11/30 02:38:05;;;;;;;2.05;1.23;;;5.90;99.90;;;;;;5055706;28;20080;-88
2022/11/30 02:40:31;;;;;;;2.92;1.13;;;5.80;99.90;;;;;;5055410;28;20048;-88
2022/11/30 02:43:03;;;;;;;4.50;0.70;;;5.90;99.90;;;;;;5039050;28;20231;-88
2022/11/30 02:45:47;;;;;;;1.27;1.17;;;5.90;99.90;;;;;;5038803;28;20313;-88
2022/11/30 02:48:17;;;;;;;6.30;1.77;;;5.80;99.90;;;;;;5055861;28;20051;-88
2022/11/30 02:50:58;;;;;;;3.05;1.00;;;5.90;99.90;;;;;;5037379;28;20080;-88
2022/11/30 02:53:27;;;;;;;1.70;1.00;;;5.90;99.90;;;;;;5038871;28;20486;-88
2022/11/30 02:56:02;;;;;;;2.20;1.10;;;7.10;99.90;;;;;;5038551;28;20059;-88
2022/11/30 02:58:28;;;;;;;2.05;0.90;;;5.90;99.90;;;;;;5038842;28;20049;-88
2022/11/30 03:00:59;;;;;;;1.10;0.80;;;6.00;99.90;;;;;;5055070;28;20059;-88
2022/11/30 03:03:30;;;;;;;2.90;1.05;;;5.90;99.90;;;;;;5039171;28;20054;-88
2022/11/30 03:06:09;;;;;;;;;;;;;;;;;;;;;
2022/11/30 03:08:35;;;;;;;1.35;0.63;;;5.80;99.90;;;;;;5039893;28;20411;-88
2022/11/30 03:11:02;;;;;;;1.70;1.20;;;6.00;99.90;;;;;;5054759;28;20044;-88
2022/11/30 03:13:30;;;;;;;3.50;1.08;;;7.20;99.90;;;;;;5055249;28;20055;-88
2022/11/30 03:16:02;;;;;;;3.80;1.35;;;5.90;99.90;;;;;;5054815;28;20087;-88
2022/11/30 03:18:30;;;;;;;1.58;1.00;;;7.00;99.90;;;;;;5038010;28;20106;-88
2022/11/30 03:20:58;;;;;;;0.65;0.65;;;5.90;99.90;;;;;;5054391;28;20502;-88
2022/11/30 03:23:28;;;;;;;1.23;0.95;;;5.70;99.90;;;;;;5038718;28;20044;-88
2022/11/30 03:25:57;;;;;;;1.58;0.90;;;6.00;99.90;;;;;;5038135;28;20051;-88
2022/11/30 03:28:24;;;;;;;2.13;0.73;;;6.40;99.90;;;;;;5054751;28;20040;-88
2022/11/30 03:30:52;;;;;;;1.63;1.38;;;5.90;99.90;;;;;;5054585;28;20123;-88
2022/11/30 03:33:21;;;;;;;1.90;1.25;;;6.00;99.90;;;;;;5055266;28;20047;-88
2022/11/30 03:35:46;;;;;;;1.08;1.00;;;5.80;99.90;;;;;;5038192;28;20135;-88
2022/11/30 03:38:12;;;;;;;3.80;1.13;;;5.80;99.90;;;;;;5054478;28;20079;-88
2022/11/30 03:40:38;;;;;;;2.50;1.10;;;5.80;99.90;;;;;;5054882;28;20052;-88
2022/11/30 03:43:15;;;;;;;3.80;3.10;;;5.90;99.90;;;;;;5054843;28;20132;-88
2022/11/30 03:45:44;;;;;;;3.63;1.23;;;5.90;99.90;;;;;;5054633;28;20044;-88
2022/11/30 03:48:10;;;;;;;2.35;1.20;;;5.80;99.90;;;;;;5038300;28;20048;-88
2022/11/30 03:50:36;;;;;;;2.97;0.80;;;6.60;99.90;;;;;;5054759;28;20071;-88
2022/11/30 03:53:01;;;;;;;2.73;0.93;;;5.80;99.90;;;;;;5054490;28;20048;-88
2022/11/30 03:55:27;;;;;;;2.80;1.50;;;5.80;99.90;;;;;;5054242;28;20057;-88
2022/11/30 03:57:53;;;;;;;1.97;1.17;;;5.80;99.90;;;;;;5038041;28;20049;-88
2022/11/30 04:00:19;;;;;;;1.77;1.43;;;7.20;99.90;;;;;;5055036;28;20052;-88
2022/11/30 04:02:45;;;;;;;3.42;1.13;;;5.90;99.90;;;;;;5037361;28;20045;-88
2022/11/30 04:05:13;;;;;;;2.57;0.80;;;5.80;99.90;;;;;;5037850;28;20048;-88
2022/11/30 04:07:41;;;;;;;2.20;0.70;;;5.90;99.90;;;;;;5071438;28;20052;-88
2022/11/30 04:10:10;;;;;;;1.08;0.90;;;5.80;99.90;;;;;;5054323;28;20155;-88
2022/11/30 04:12:50;;;;;;;2.08;0.90;;;5.80;99.90;;;;;;5038413;28;20139;-88
2022/11/30 04:15:16;;;;;;;2.60;0.85;;;5.90;99.90;;;;;;5038274;28;20114;-88
2022/11/30 04:17:44;;;;;;;1.87;0.77;;;5.80;99.90;;;;;;5054574;28;20052;-88
2022/11/30 04:20:10;;;;;;;1.33;0.88;;;5.90;99.90;;;;;;5033928;28;20095;-88
2022/11/30 04:22:36;;;;;;;2.15;1.08;;;5.90;99.90;;;;;;5054573;28;20445;-88
2022/11/30 04:25:07;;;;;;;3.47;1.13;;;5.80;99.90;;;;;;5034348;28;20045;-88
2022/11/30 04:27:41;;;;;;;1.90;1.02;;;5.90;99.90;;;;;;5051238;28;20041;-88
2022/11/30 04:30:07;;;;;;;3.33;1.95;;;5.00;99.90;;;;;;5038437;28;20312;-88
2022/11/30 04:32:33;;;;;;;2.22;1.35;;;5.90;99.90;;;;;;5040898;28;20041;-88
2022/11/30 04:34:59;;;;;;;2.20;0.80;;;5.90;99.90;;;;;;5037929;28;20052;-88
2022/11/30 04:37:27;;;;;;;1.13;0.57;;;5.80;99.90;;;;;;5057770;28;20045;-88
2022/11/30 04:39:53;;;;;;;1.37;0.70;;;5.80;99.90;;;;;;5057539;28;20051;-88
2022/11/30 04:42:22;;;;;;;1.30;0.77;;;5.80;99.90;;;;;;5058152;28;20537;-88
2022/11/30 04:44:50;;;;;;;3.05;1.05;;;5.90;99.90;;;;;;5057544;28;20403;-88
2022/11/30 04:47:19;;;;;;;0.55;0.55;;;6.00;99.90;;;;;;5057831;28;20056;-88
2022/11/30 04:49:47;;;;;;;3.13;1.45;;;5.80;99.90;;;;;;5040010;28;20051;-88
2022/11/30 04:52:14;;;;;;;2.35;1.45;;;5.80;99.90;;;;;;5040442;28;20483;-89
2022/11/30 04:54:41;;;;;;;2.60;0.70;;;6.40;99.90;;;;;;5040663;28;20048;-88
2022/11/30 04:57:09;;;;;;;3.57;0.80;;;7.20;99.90;;;;;;5024196;28;20509;-88
2022/11/30 04:59:37;;;;;;;0.43;0.43;;;5.90;99.90;;;;;;5040759;28;20403;-88
2022/11/30 05:02:03;;;;;;;1.58;0.65;;;5.90;99.90;;;;;;5057103;28;20052;-88
2022/11/30 05:04:32;;;;;;;1.43;1.23;;;5.80;99.90;;;;;;5037653;28;20506;-88
2022/11/30 05:06:57;;;;;;;1.27;0.88;;;6.00;99.90;;;;;;5057078;28;20041;-89
2022/11/30 05:09:25;;;;;;;1.87;0.70;;;5.80;99.90;;;;;;5040863;28;20044;-88
2022/11/30 05:11:54;;;;;;;0.85;0.80;;;5.90;99.90;;;;;;5057010;28;20037;-88
2022/11/30 05:14:22;;;;;;;1.42;1.15;;;5.80;99.90;;;;;;5037885;28;20395;-88
2022/11/30 05:16:50;;;;;;;7.25;1.38;;;6.70;99.90;;;;;;5057278;28;20117;-88
2022/11/30 05:19:19;;;;;;;1.40;0.93;;;5.80;99.90;;;;;;5040138;28;20048;-88
2022/11/30 05:21:44;;;;;;;1.48;1.38;;;5.80;99.90;;;;;;5040256;28;20434;-88
2022/11/30 05:24:10;;;;;;;1.60;0.70;;;7.00;99.90;;;;;;5056816;28;20048;-88
2022/11/30 05:26:37;;;;;;;1.07;0.60;;;5.80;99.90;;;;;;5073826;28;20110;-88
2022/11/30 05:29:09;;;;;;;4.85;0.98;;;5.90;99.90;;;;;;5040219;28;20048;-88
2022/11/30 05:31:38;;;;;;;2.67;0.68;;;5.80;99.90;;;;;;5056709;28;20054;-88
2022/11/30 05:34:04;;;;;;;1.63;0.63;;;7.20;99.90;;;;;;5040148;28;20127;-87
2022/11/30 05:36:30;;;;;;;1.70;0.57;;;4.80;99.90;;;;;;5056803;28;20547;-87
2022/11/30 05:38:56;;;;;;;1.17;0.53;;;5.70;99.90;;;;;;5040145;28;20058;-87
2022/11/30 05:41:21;;;;;;;1.10;0.87;;;5.80;99.90;;;;;;5039786;28;20495;-87
2022/11/30 05:43:47;;;;;;;2.97;0.97;;;6.40;99.90;;;;;;5039584;28;20127;-87
2022/11/30 05:46:13;;;;;;;0.70;0.67;;;5.80;99.90;;;;;;5039822;28;20111;-87
2022/11/30 05:48:48;;;;;;;2.60;1.80;;;5.80;99.90;;;;;;5040298;28;20048;-87
2022/11/30 05:51:16;;;;;;;2.28;1.40;;;5.70;99.90;;;;;;5056137;28;20044;-87
2022/11/30 05:53:48;;;;;;;3.08;1.13;;;5.80;99.90;;;;;;5052117;28;20136;-87
2022/11/30 05:56:17;;;;;;;0.90;0.77;;;6.80;99.90;;;;;;5019592;28;20104;-86
2022/11/30 05:58:44;;;;;;;3.15;1.52;;;5.70;99.90;;;;;;5020108;28;20049;-86
2022/11/30 06:01:23;;;;;;;;;;;5.70;99.90;;;;;;5019948;28;20084;-87
2022/11/30 06:03:52;;;;;;;2.83;1.02;;;5.70;99.90;;;;;;5019855;28;19921;-87
2022/11/30 06:06:18;;;;;;;3.60;1.13;;;5.70;99.90;;;;;;5019416;28;20045;-87
2022/11/30 06:08:46;;;;;;;0.90;0.70;;;5.70;99.90;;;;;;5019727;28;20055;-87
2022/11/30 06:11:13;;;;;;;2.30;0.77;;;5.70;99.90;;;;;;5035541;28;20066;-87
2022/11/30 06:13:39;;;;;;;3.15;1.65;;;5.80;99.90;;;;;;5036291;28;20128;-87
2022/11/30 06:16:08;;;;;;;1.48;0.88;;;7.00;99.90;;;;;;5035428;28;20045;-87
2022/11/30 06:18:39;;;;;;;2.58;1.65;;;5.70;99.90;;;;;;5036084;28;20098;-87
2022/11/30 06:21:08;;;;;;;1.13;0.82;;;6.70;99.90;;;;;;5035848;28;20048;-87
2022/11/30 06:23:35;;;;;;;1.48;1.27;;;5.60;99.90;;;;;;5035476;28;20041;-87
2022/11/30 06:26:10;;;;;;;2.90;1.33;;;5.70;99.90;;;;;;5003318;28;20049;-86
2022/11/30 06:28:37;;;;;;;1.42;0.77;;;5.60;99.90;;;;;;5036098;28;20071;-87
2022/11/30 06:31:04;;;;;;;1.98;1.05;;;5.70;99.90;;;;;;5019426;28;20041;-86
2022/11/30 06:33:39;;;;;;;3.33;1.15;;;5.70;99.90;;;;;;5035464;28;20084;-87
2022/11/30 06:36:34;;;;;;;;;;;;;;;;;;;;;
2022/11/30 06:54:13;;;;;;;3.92;0.65;;;4.70;99.90;;;;;;4879287;29;20052;-95
2022/11/30 06:56:44;;;;;;;;;;;;;;;;;;;;;
2022/11/30 06:59:10;;;;;;;1.08;0.63;;;5.50;99.90;;;;;;4866236;29;20542;-86
2022/11/30 07:01:35;;;;;;;3.30;1.30;;;5.60;99.90;;;;;;4891719;28;20066;-85
2022/11/30 07:04:01;;;;;;;1.63;0.63;;;5.60;99.90;;;;;;5007233;28;20115;-86
2022/11/30 07:06:29;;;;;;;2.50;0.97;;;6.90;99.90;;;;;;5017525;28;20049;-85
2022/11/30 07:08:58;;;;;;;1.77;0.82;;;5.60;99.90;;;;;;5018835;28;20088;-84
2022/11/30 07:11:24;;;;;;;0.93;0.40;;;6.50;99.90;;;;;;5018244;28;20049;-84
2022/11/30 07:13:49;;;;;;;4.40;1.27;;;6.80;99.90;;;;;;5018708;28;20055;-84
2022/11/30 07:16:15;;;;;;;1.20;0.47;;;5.60;99.90;;;;;;5018433;28;20553;-85
2022/11/30 07:18:41;;;;;;;1.20;0.77;;;5.50;99.90;;;;;;5019084;28;20102;-85
2022/11/30 07:21:07;;;;;;;2.80;0.60;;;5.60;99.90;;;;;;5018511;28;20395;-84
2022/11/30 07:26:19;;;;;;;0.68;0.47;;;5.60;99.90;;;;;;5034406;28;20403;-85
2022/11/30 07:28:45;;;;;;;0.75;0.75;;;5.60;99.90;;;;;;5018652;28;20175;-85
2022/11/30 07:31:20;;;;;;;1.25;0.68;;;5.50;99.90;;;;;;5018097;28;20041;-86
2022/11/30 07:33:47;;;;;;;5.18;1.50;;;5.60;99.90;;;;;;5034983;28;20052;-83
2022/11/30 07:36:13;;;;;;;;;;;5.80;99.90;;;;;;5002907;28;20049;-84
2022/11/30 07:38:38;;;;;;;0.70;0.68;;;5.50;99.90;;;;;;5018421;28;20470;-84
2022/11/30 07:41:04;;;;;;;1.40;0.80;;;5.90;99.90;;;;;;5034887;28;20099;-84
2022/11/30 07:43:30;;;;;;;1.00;0.70;;;5.50;99.90;;;;;;5034615;28;20041;-86
2022/11/30 07:46:10;;;;;;;1.67;1.27;;;6.20;99.90;;;;;;5002471;28;20049;-89
2022/11/30 07:48:35;;;;;;;2.35;0.75;;;5.50;99.90;;;;;;5034486;28;20048;-85
2022/11/30 07:51:07;;;;;;;3.33;0.83;;;5.50;99.90;;;;;;5018330;28;20045;-84
2022/11/30 07:53:32;;;;;;;1.75;1.27;;;5.50;99.90;;;;;;5018973;28;20041;-84
2022/11/30 07:56:10;;;;;;;0.67;0.67;;;5.70;99.90;;;;;;5054764;28;20059;-83
2022/11/30 07:58:36;;;;;;;1.40;0.43;;;6.50;99.90;;;;;;5037282;28;20110;-83
2022/11/30 08:01:03;;;;;;;0.88;0.80;;;5.50;99.90;;;;;;5054695;28;20086;-83
2022/11/30 08:03:29;;;;;;;1.13;0.85;;;5.50;99.90;;;;;;5038006;28;20456;-83
2022/11/30 08:06:07;;;;;;;2.63;1.30;;;5.40;99.90;;;;;;5040067;28;20048;-84
2022/11/30 08:08:35;;;;;;;1.88;1.33;;;5.40;99.90;;;;;;5041797;28;20107;-84
2022/11/30 08:11:01;;;;;;;2.13;1.52;;;4.90;99.90;;;;;;5058482;28;20040;-84
2022/11/30 08:13:27;;;;;;;0.65;0.63;;;5.50;99.90;;;;;;5058458;28;20049;-84
2022/11/30 08:15:52;;;;;;;2.33;0.93;;;5.20;99.90;;;;;;5041947;28;20139;-84
2022/11/30 08:18:18;;;;;;;3.47;0.87;;;6.30;99.90;;;;;;5041816;28;20135;-84
2022/11/30 08:20:44;;;;;;;0.75;0.65;;;6.80;99.90;;;;;;5041467;28;20571;-84
2022/11/30 08:23:11;;;;;;;5.90;1.03;;;6.20;99.90;;;;;;5058328;28;20131;-84
2022/11/30 08:25:37;;;;;;;0.50;0.50;;;6.10;99.90;;;;;;5024920;28;20044;-84
2022/11/30 08:28:03;;;;;;;0.70;0.70;;;5.40;99.90;;;;;;5058304;28;20521;-84
2022/11/30 08:30:29;;;;;;;2.15;0.70;;;5.40;99.90;;;;;;5024757;28;20063;-84
2022/11/30 08:32:55;;;;;;;0.80;0.80;;;5.40;99.90;;;;;;5058289;28;20045;-84
2022/11/30 08:35:21;;;;;;;1.10;0.50;;;6.10;99.90;;;;;;5058282;28;20425;-84
2022/11/30 08:37:47;;;;;;;0.87;0.87;;;5.70;99.90;;;;;;5024736;28;20136;-84
2022/11/30 08:40:13;;;;;;;0.97;0.80;;;5.40;99.90;;;;;;5024699;28;20135;-84
2022/11/30 08:42:38;;;;;;;0.40;0.40;;;5.40;99.90;;;;;;5041031;28;20083;-84
2022/11/30 08:45:05;;;;;;;4.77;1.37;;;6.60;99.90;;;;;;5024954;28;20048;-84
2022/11/30 08:47:31;;;;;;;2.25;1.27;;;5.40;99.90;;;;;;5057420;28;20110;-85
2022/11/30 08:49:57;;;;;;;2.50;1.13;;;5.90;99.90;;;;;;5024682;28;20131;-84
2022/11/30 08:52:23;;;;;;;2.13;0.97;;;6.10;99.90;;;;;;5040952;28;20123;-84
2022/11/30 08:54:49;;;;;;;1.43;1.30;;;5.40;99.90;;;;;;5024140;28;20377;-84
2022/11/30 08:57:16;;;;;;;1.60;0.80;;;5.50;99.90;;;;;;5041256;28;20789;-84
2022/11/30 08:59:42;;;;;;;2.60;1.10;;;6.80;99.90;;;;;;5040648;28;20055;-84
2022/11/30 09:02:15;;;;;;;3.87;0.63;;;6.00;99.90;;;;;;5024859;28;20044;-84
2022/11/30 09:04:41;;;;;;;1.98;0.68;;;5.50;99.90;;;;;;5057428;28;20044;-84
2022/11/30 09:07:08;;;;;;;1.20;1.07;;;5.40;99.90;;;;;;5074377;28;20041;-84
2022/11/30 09:09:35;;;;;;;2.67;1.30;;;5.50;99.90;;;;;;5040666;28;20390;-85
2022/11/30 09:12:01;;;;;;;0.52;0.52;;;5.90;99.90;;;;;;5057274;28;20040;-84
2022/11/30 09:14:27;;;;;;;0.80;0.60;;;6.40;99.90;;;;;;5041142;28;20558;-84
2022/11/30 09:16:53;;;;;;;2.77;1.40;;;5.50;99.90;;;;;;5040339;28;20080;-84
2022/11/30 09:19:22;;;;;;;3.90;1.27;;;6.30;99.90;;;;;;5007932;28;20052;-86
2022/11/30 09:21:48;;;;;;;0.82;0.82;;;5.50;99.90;;;;;;5040027;28;20498;-85
2022/11/30 09:24:14;;;;;;;0.93;0.60;;;6.50;99.90;;;;;;5040423;28;20048;-85
2022/11/30 09:26:39;;;;;;;1.87;1.63;;;5.50;99.90;;;;;;5057008;28;20045;-85
2022/11/30 09:29:05;;;;;;;1.20;0.80;;;5.50;99.90;;;;;;5040760;28;20506;-85
2022/11/30 09:31:31;;;;;;;1.77;1.07;;;5.50;99.90;;;;;;5040423;28;20053;-85
2022/11/30 09:33:57;;;;;;;2.57;1.03;;;5.50;99.90;;;;;;5056859;28;20036;-84
2022/11/30 09:36:26;;;;;;;1.35;0.90;;;5.60;99.90;;;;;;5044770;28;20044;-86
2022/11/30 09:38:55;;;;;;;1.60;0.77;;;6.00;99.90;;;;;;5039758;28;20442;-86
2022/11/30 09:41:33;;;;;;;2.60;0.60;;;6.50;99.90;;;;;;5040226;28;20044;-85
2022/11/30 09:44:14;;;;;;;2.17;0.85;;;6.70;99.90;;;;;;5040016;28;20040;-85
2022/11/30 09:47:18;;;;;;;2.45;1.08;;;5.60;99.90;;;;;;5039895;28;20106;-87
2022/11/30 09:49:45;;;;;;;2.05;1.60;;;5.60;99.90;;;;;;5039132;28;20052;-86
2022/11/30 09:52:31;;;;;;;1.55;0.80;;;5.70;99.90;;;;;;5023058;28;20138;-85
2022/11/30 09:55:02;;;;;;;1.80;1.00;;;5.70;99.90;;;;;;5055591;28;20091;-85
2022/11/30 09:57:45;;;;;;;3.20;1.20;;;6.10;99.90;;;;;;5056382;28;20131;-86
2022/11/30 10:00:20;;;;;;;1.92;1.08;;;5.70;99.90;;;;;;5039503;28;20049;-86
2022/11/30 10:02:52;;;;;;;0.80;0.80;;;5.80;99.90;;;;;;5039242;28;20048;-87
2022/11/30 10:05:37;;;;;;;1.92;0.70;;;5.80;99.90;;;;;;5034120;28;20044;-86
2022/11/30 10:08:26;;;;;;;1.17;1.02;;;5.80;99.90;;;;;;5055531;28;20044;-86
2022/11/30 10:11:30;;;;;;;1.77;1.23;;;5.90;99.90;;;;;;5039351;28;20087;-86
2022/11/30 10:14:31;;;;;;;2.05;1.25;;;5.90;99.90;;;;;;5039510;28;20066;-85
2022/11/30 10:17:10;;;;;;;2.47;1.23;;;5.90;99.90;;;;;;5039417;28;20084;-86
2022/11/30 10:20:00;;;;;;;1.63;1.08;;;5.90;99.90;;;;;;5056191;28;20056;-86
2022/11/30 10:22:29;;;;;;;3.72;0.77;;;5.90;99.90;;;;;;5039412;28;20147;-85
2022/11/30 10:25:11;;;;;;;1.45;0.68;;;5.90;99.90;;;;;;5055860;28;20052;-86
2022/11/30 10:27:48;;;;;;;0.95;0.95;;;5.90;99.90;;;;;;5055360;28;20044;-86
2022/11/30 10:30:29;;;;;;;3.13;1.15;;;5.90;99.90;;;;;;5056116;28;20046;-86
2022/11/30 10:32:57;;;;;;;1.13;0.85;;;5.90;99.90;;;;;;5039016;28;20055;-86
2022/11/30 10:35:36;;;;;;;0.88;0.75;;;5.10;99.90;;;;;;5055900;28;20059;-86
2022/11/30 10:38:15;;;;;;;1.83;1.00;;;5.90;99.90;;;;;;5038721;28;20066;-86
2022/11/30 10:40:53;;;;;;;2.53;1.33;;;6.00;99.90;;;;;;5039266;28;20434;-86
2022/11/30 10:43:29;;;;;;;2.17;0.75;;;5.30;99.90;;;;;;5055650;28;20487;-86
2022/11/30 10:45:55;;;;;;;1.67;1.55;;;6.50;99.90;;;;;;5072234;28;20056;-86
2022/11/30 10:48:48;;;;;;;2.80;1.53;;;6.00;99.90;;;;;;5039113;28;20044;-86
2022/11/30 10:51:15;;;;;;;4.00;1.25;;;5.90;99.90;;;;;;5050823;28;20306;-85
2022/11/30 10:53:40;;;;;;;2.78;1.25;;;5.90;99.90;;;;;;5022768;28;20045;-85
2022/11/30 10:56:12;;;;;;;1.33;1.20;;;5.90;99.90;;;;;;5036401;28;20115;-86
2022/11/30 10:59:02;;;;;;;2.05;1.40;;;5.90;99.90;;;;;;5039072;28;20048;-86
2022/11/30 11:01:46;;;;;;;3.65;1.20;;;5.90;99.90;;;;;;5038878;28;20044;-85
2022/11/30 11:04:11;;;;;;;3.08;0.90;;;5.90;99.90;;;;;;5055202;28;20051;-86
2022/11/30 11:06:53;;;;;;;2.27;1.00;;;6.40;99.90;;;;;;5055552;28;20044;-85
2022/11/30 11:09:28;;;;;;;1.58;1.05;;;5.90;99.90;;;;;;5038884;28;20044;-85
2022/11/30 11:11:57;;;;;;;2.53;0.95;;;5.80;99.90;;;;;;5054770;28;20044;-86
2022/11/30 11:14:25;;;;;;;2.70;1.15;;;6.00;99.90;;;;;;5038715;28;20094;-85
2022/11/30 11:16:59;;;;;;;2.53;1.63;;;6.00;99.90;;;;;;5038731;28;20132;-85
2022/11/30 11:19:34;;;;;;;2.13;0.90;;;6.00;99.90;;;;;;5038730;28;20044;-84
2022/11/30 11:22:06;;;;;;;1.17;0.85;;;6.00;99.90;;;;;;5038068;28;20490;-84
2022/11/30 11:24:32;;;;;;;3.85;1.90;;;6.00;99.90;;;;;;5055070;28;20049;-84
2022/11/30 11:26:58;;;;;;;;;;;6.00;99.90;;;;;;5038368;28;20395;-84
2022/11/30 11:29:33;;;;;;;1.95;1.23;;;6.00;99.90;;;;;;5055067;28;19920;-85
2022/11/30 11:32:20;;;;;;;2.15;0.95;;;6.80;99.90;;;;;;5039632;28;20088;-90
2022/11/30 11:34:46;;;;;;;3.33;0.88;;;6.40;99.90;;;;;;5055418;28;20052;-87
2022/11/30 11:37:27;;;;;;;1.50;1.30;;;6.10;99.90;;;;;;5038847;28;20049;-92
2022/11/30 11:40:03;;;;;;;3.15;1.67;;;6.10;99.90;;;;;;5040896;28;20055;-86
2022/11/30 11:42:52;;;;;;;1.85;0.93;;;6.10;99.90;;;;;;5042253;28;20066;-86
2022/11/30 11:45:29;;;;;;;3.10;1.45;;;6.10;99.90;;;;;;5058490;28;20044;-85
2022/11/30 11:48:00;;;;;;;1.63;0.75;;;6.60;99.90;;;;;;5058718;28;20045;-85
2022/11/30 11:50:36;;;;;;;1.45;0.95;;;6.10;99.90;;;;;;5041814;28;20052;-86
2022/11/30 11:53:23;;;;;;;1.73;1.45;;;6.20;99.90;;;;;;5041274;28;20040;-87
2022/11/30 11:56:06;;;;;;;1.30;1.20;;;6.10;99.90;;;;;;5041421;28;20493;-85
2022/11/30 11:59:00;;;;;;;1.63;1.00;;;6.10;99.90;;;;;;5058617;28;20384;-90
2022/11/30 12:01:36;;;;;;;4.18;1.65;;;5.80;99.90;;;;;;5041692;28;20055;-86
2022/11/30 12:04:15;;;;;;;2.63;1.10;;;6.00;99.90;;;;;;5058190;28;20139;-86
2022/11/30 12:06:43;;;;;;;2.88;1.00;;;6.00;99.90;;;;;;5041945;28;20055;-87
2022/11/30 12:09:14;;;;;;;2.78;1.55;;;6.30;99.90;;;;;;5057985;28;20044;-85
2022/11/30 12:11:46;;;;;;;2.45;1.50;;;7.20;99.90;;;;;;5041451;28;20090;-86
2022/11/30 12:14:15;;;;;;;4.03;1.25;;;6.00;99.90;;;;;;5041522;28;20076;-85
2022/11/30 12:17:11;;;;;;;2.00;1.05;;;6.70;99.90;;;;;;5041669;28;20083;-86
2022/11/30 12:20:00;;;;;;;1.42;0.73;;;6.10;99.90;;;;;;5041549;28;20433;-86
2022/11/30 12:22:53;;;;;;;2.25;1.05;;;6.00;99.90;;;;;;5057402;28;20040;-88
2022/11/30 12:25:25;;;;;;;3.05;1.48;;;6.00;99.90;;;;;;5057501;28;20394;-86
2022/11/30 12:28:25;;;;;;;3.78;1.25;;;6.10;99.90;;;;;;5057483;28;20037;-86
2022/11/30 12:31:16;;;;;;;8.60;1.85;;;6.00;99.90;;;;;;5029409;28;20140;-86
2022/11/30 12:34:12;;;;;;;1.58;0.88;;;6.00;99.90;;;;;;5041431;28;20090;-87
2022/11/30 12:36:47;;;;;;;2.47;1.42;;;6.10;99.90;;;;;;5057565;28;20498;-86
2022/11/30 12:40:04;;;;;;;3.85;1.00;;;6.00;99.90;;;;;;5057412;28;20131;-86
2022/11/30 12:42:38;;;;;;;3.08;1.50;;;6.10;99.90;;;;;;5053491;28;20053;-86
2022/11/30 12:45:20;;;;;;;1.92;0.90;;;6.10;99.90;;;;;;5057573;28;20048;-88
2022/11/30 12:48:15;;;;;;;4.50;1.70;;;6.20;99.90;;;;;;5057765;28;20040;-85
2022/11/30 12:50:52;;;;;;;4.25;1.50;;;6.20;99.90;;;;;;5056700;28;20045;-87
2022/11/30 12:53:33;;;;;;;2.85;1.20;;;6.40;99.90;;;;;;5040795;28;20052;-86
2022/11/30 12:56:18;;;;;;;3.97;2.22;;;6.20;99.90;;;;;;5056804;28;20052;-86
2022/11/30 12:58:57;;;;;;;1.75;1.55;;;6.20;99.90;;;;;;5057154;28;20048;-86
2022/11/30 13:02:00;;;;;;;3.60;1.35;;;6.30;99.90;;;;;;5057249;28;20084;-86
2022/11/30 13:04:40;;;;;;;3.63;1.52;;;6.20;99.90;;;;;;5057362;28;20125;-86
2022/11/30 13:07:12;;;;;;;1.67;1.08;;;6.10;99.90;;;;;;5057395;28;20487;-87
2022/11/30 13:09:45;;;;;;;3.58;1.08;;;6.10;99.90;;;;;;5056909;28;20075;-87
2022/11/30 13:12:20;;;;;;;2.97;1.52;;;6.90;99.90;;;;;;5056730;28;20486;-88
2022/11/30 13:14:46;;;;;;;4.00;2.47;;;5.50;99.90;;;;;;5057197;28;20525;-86
2022/11/30 13:17:17;;;;;;;5.18;1.05;;;6.10;99.90;;;;;;5056731;28;20420;-86
2022/11/30 13:19:57;;;;;;;4.07;2.25;;;6.10;99.90;;;;;;5057125;28;20040;-88
2022/11/30 13:22:49;;;;;;;3.63;1.52;;;6.30;99.90;;;;;;5056577;28;20040;-87
2022/11/30 13:25:35;;;;;;;3.10;1.63;;;6.00;99.90;;;;;;5057029;28;20044;-86
2022/11/30 13:28:23;;;;;;;4.88;1.33;;;6.10;99.90;;;;;;5029957;28;20060;-86
2022/11/30 13:31:03;;;;;;;3.17;1.45;;;6.10;99.90;;;;;;5057214;28;20147;-86
2022/11/30 13:33:47;;;;;;;2.05;1.75;;;7.40;99.90;;;;;;5056864;28;20446;-87
2022/11/30 13:36:29;;;;;;;1.85;1.15;;;6.00;99.90;;;;;;5056790;28;20052;-87
2022/11/30 13:39:27;;;;;;;3.45;1.60;;;6.00;99.90;;;;;;5057397;28;20490;-87
2022/11/30 13:41:59;;;;;;;4.38;1.52;;;6.00;99.90;;;;;;5040157;28;20398;-86
2022/11/30 13:44:33;;;;;;;3.55;1.75;;;7.00;99.90;;;;;;5056320;28;20080;-87
2022/11/30 13:47:07;;;;;;;4.47;1.42;;;6.00;99.90;;;;;;5057058;28;20399;-86